createdAt,value
2019-01-25T00:02:42.296Z,76.24
2019-01-25T00:05:46.145Z,77.01
2019-01-25T00:08:50.073Z,77.21
2019-01-25T00:11:53.946Z,76.12
2019-01-25T00:14:57.787Z,76.01
2019-01-25T00:18:01.728Z,76.30
2019-01-25T00:21:05.836Z,76.44
2019-01-25T00:36:52.202Z,75.67
2019-01-25T00:39:56.058Z,75.90
2019-01-25T00:42:59.960Z,76.10
2019-01-25T00:46:03.884Z,76.36
2019-01-25T00:49:07.730Z,76.42
2019-01-25T00:52:11.735Z,76.19
2019-01-25T00:55:15.730Z,76.61
2019-01-25T00:58:19.592Z,76.54
2019-01-25T01:01:23.593Z,76.62
2019-01-25T01:04:27.586Z,76.83
2019-01-25T01:07:31.521Z,76.94
2019-01-25T01:10:35.475Z,76.93
2019-01-25T01:13:39.445Z,76.79
2019-01-25T01:16:43.374Z,76.76
2019-01-25T01:19:47.216Z,77.06
2019-01-25T01:22:51.397Z,77.22
2019-01-25T01:25:55.327Z,77.00
2019-01-25T01:28:59.170Z,77.02
2019-01-25T01:32:03.154Z,77.01
2019-01-25T01:35:07.235Z,76.16
2019-01-25T01:38:11.180Z,76.38
2019-01-25T01:41:15.062Z,76.40
2019-01-25T01:44:18.966Z,76.71
2019-01-25T01:47:22.948Z,76.97
2019-01-25T01:50:26.920Z,77.13
2019-01-25T01:53:30.769Z,77.22
2019-01-25T01:56:34.653Z,77.17
2019-01-25T01:59:38.499Z,76.38
2019-01-25T02:02:42.519Z,76.59
2019-01-25T02:05:46.435Z,76.91
2019-01-25T02:08:50.278Z,77.43
2019-01-25T02:11:54.109Z,77.59
2019-01-25T02:14:58.034Z,77.66
2019-01-25T02:18:01.884Z,77.76
2019-01-25T02:21:06.871Z,77.86
2019-01-25T02:24:10.718Z,77.94
2019-01-25T02:27:14.572Z,78.15
2019-01-25T02:30:20.706Z,78.31
2019-01-25T02:33:24.641Z,78.41
2019-01-25T02:36:28.478Z,78.12
2019-01-25T02:39:32.336Z,77.86
2019-01-25T02:42:36.250Z,77.74
2019-01-25T02:45:40.094Z,77.80
2019-01-25T02:48:43.931Z,77.94
2019-01-25T02:51:47.766Z,77.99
2019-01-25T02:54:51.682Z,77.99
2019-01-25T02:57:55.538Z,77.98
2019-01-25T03:00:59.421Z,78.13
2019-01-25T03:04:03.351Z,77.74
2019-01-25T03:07:07.257Z,77.02
2019-01-25T03:10:12.460Z,76.63
2019-01-25T03:13:16.298Z,76.34
2019-01-25T03:16:20.236Z,76.46
2019-01-25T03:19:24.149Z,75.49
2019-01-25T03:22:28.079Z,75.45
2019-01-25T03:25:31.997Z,75.52
2019-01-25T03:28:36.001Z,75.58
2019-01-25T03:31:39.886Z,75.23
2019-01-25T03:34:43.737Z,74.93
2019-01-25T03:37:47.743Z,74.66
2019-01-25T03:40:55.137Z,74.50
2019-01-25T03:43:57.270Z,73.46
2019-01-25T03:47:01.090Z,73.45
2019-01-25T03:50:07.434Z,73.80
2019-01-25T03:53:11.375Z,73.45
2019-01-25T03:56:15.178Z,73.76
2019-01-25T03:59:18.974Z,73.69
2019-01-25T04:02:22.895Z,73.64
2019-01-25T04:05:26.853Z,73.88
2019-01-25T04:08:30.812Z,74.03
2019-01-25T04:11:34.682Z,73.62
2019-01-25T04:14:38.609Z,73.88
2019-01-25T04:17:42.487Z,73.64
2019-01-25T04:20:46.393Z,73.40
2019-01-25T04:23:50.257Z,73.29
2019-01-25T04:26:54.056Z,73.13
2019-01-25T04:29:57.919Z,73.21
2019-01-25T04:33:01.774Z,73.26
2019-01-25T04:36:05.875Z,73.17
2019-01-25T04:39:10.264Z,73.07
2019-01-25T04:42:14.139Z,72.78
2019-01-25T04:45:19.242Z,72.94
2019-01-25T04:48:23.117Z,72.75
2019-01-25T04:51:27.020Z,72.92
2019-01-25T04:54:30.968Z,73.07
2019-01-25T04:57:34.818Z,73.12
2019-01-25T05:00:38.712Z,73.30
2019-01-25T05:03:42.564Z,73.67
2019-01-25T05:06:46.400Z,73.59
2019-01-25T05:09:50.197Z,73.46
2019-01-25T05:12:54.505Z,73.07
2019-01-25T05:15:58.359Z,72.80
2019-01-25T05:19:02.221Z,72.06
2019-01-25T05:22:06.202Z,72.37
2019-01-25T05:25:10.171Z,72.75
2019-01-25T05:28:18.693Z,73.03
2019-01-25T05:31:26.310Z,73.29
2019-01-25T05:34:30.129Z,73.54
2019-01-25T05:37:33.961Z,73.58
2019-01-25T05:40:37.839Z,73.81
2019-01-25T05:43:42.954Z,73.85
2019-01-25T05:46:46.761Z,73.95
2019-01-25T05:49:50.600Z,74.07
2019-01-25T05:52:54.601Z,74.15
2019-01-25T05:55:58.552Z,74.25
2019-01-25T05:59:02.407Z,74.37
2019-01-25T06:02:06.398Z,74.40
2019-01-25T06:05:10.437Z,74.45
2019-01-25T06:08:32.227Z,74.48
2019-01-25T06:11:37.480Z,74.75
2019-01-25T06:14:41.333Z,75.03
2019-01-25T06:17:45.183Z,74.94
2019-01-25T06:20:52.478Z,74.95
2019-01-25T06:23:56.307Z,75.05
2019-01-25T06:27:00.315Z,75.15
2019-01-25T06:30:07.080Z,75.25
2019-01-25T06:33:10.966Z,75.33
2019-01-25T06:36:14.866Z,75.47
2019-01-25T06:39:18.785Z,75.53
2019-01-25T06:42:22.709Z,75.50
2019-01-25T06:45:26.531Z,75.46
2019-01-25T06:48:30.450Z,75.55
2019-01-25T06:51:34.420Z,75.51
2019-01-25T06:54:38.264Z,75.26
2019-01-25T06:57:54.725Z,75.38
2019-01-25T07:01:06.624Z,75.40
2019-01-25T07:04:10.600Z,75.33
2019-01-25T07:07:39.567Z,75.25
2019-01-25T07:10:43.479Z,75.20
2019-01-25T07:13:47.302Z,75.24
2019-01-25T07:16:51.159Z,75.41
2019-01-25T07:19:54.990Z,75.54
2019-01-25T07:22:58.852Z,75.62
2019-01-25T07:26:02.842Z,75.70
2019-01-25T07:29:06.764Z,75.62
2019-01-25T07:32:10.779Z,75.66
2019-01-25T07:35:14.717Z,75.90
2019-01-25T07:38:18.765Z,75.71
2019-01-25T07:41:22.602Z,75.81
2019-01-25T07:44:26.658Z,75.89
2019-01-25T07:47:30.578Z,75.97
2019-01-25T07:50:34.465Z,75.92
2019-01-25T07:53:38.626Z,75.76
2019-01-25T07:56:42.448Z,75.79
2019-01-25T07:59:46.360Z,75.96
2019-01-25T08:02:50.285Z,76.08
2019-01-25T08:05:54.172Z,76.20
2019-01-25T08:08:58.012Z,76.27
2019-01-25T08:12:07.332Z,76.36
2019-01-25T08:15:10.660Z,76.26
2019-01-25T08:18:14.597Z,76.22
2019-01-25T08:21:18.497Z,76.15
2019-01-25T08:24:22.360Z,76.10
2019-01-25T08:27:26.169Z,76.10
2019-01-25T08:30:30.158Z,76.17
2019-01-25T08:33:34.021Z,76.08
2019-01-25T08:36:37.940Z,76.09
2019-01-25T08:39:41.864Z,75.82
2019-01-25T08:42:45.832Z,75.79
2019-01-25T08:45:49.871Z,75.89
2019-01-25T08:48:54.091Z,75.56
2019-01-25T08:51:57.965Z,75.86
2019-01-25T08:55:01.798Z,76.08
2019-01-25T08:58:05.782Z,76.02
2019-01-25T09:01:09.604Z,76.12
2019-01-25T09:04:13.436Z,76.22
2019-01-25T09:07:17.334Z,76.34
2019-01-25T09:10:21.309Z,76.20
2019-01-25T09:13:25.159Z,76.26
2019-01-25T09:16:29.039Z,76.19
2019-01-25T09:19:32.929Z,76.35
2019-01-25T09:22:36.815Z,76.34
2019-01-25T09:25:40.654Z,76.55
2019-01-25T09:28:44.527Z,76.24
2019-01-25T09:31:48.405Z,75.79
2019-01-25T09:34:52.203Z,75.67
2019-01-25T09:37:56.100Z,75.44
2019-01-25T09:40:59.900Z,75.27
2019-01-25T09:44:03.896Z,75.61
2019-01-25T09:47:07.878Z,75.58
2019-01-25T09:50:14.019Z,75.17
2019-01-25T09:53:17.822Z,75.39
2019-01-25T09:56:21.620Z,75.35
2019-01-25T09:59:25.422Z,75.42
2019-01-25T10:02:29.245Z,75.47
2019-01-25T10:05:33.066Z,75.08
2019-01-25T10:08:36.873Z,74.28
2019-01-25T10:11:40.677Z,74.29
2019-01-25T10:14:44.539Z,74.35
2019-01-25T10:17:48.464Z,73.82
2019-01-25T10:20:52.281Z,73.77
2019-01-25T10:23:56.091Z,73.36
2019-01-25T10:26:59.955Z,73.18
2019-01-25T10:30:04.645Z,73.76
2019-01-25T10:33:08.466Z,74.31
2019-01-25T10:36:12.426Z,74.14
2019-01-25T10:39:16.242Z,74.02
2019-01-25T10:42:20.045Z,73.90
2019-01-25T10:45:26.797Z,74.08
2019-01-25T10:48:30.595Z,73.93
2019-01-25T10:51:34.567Z,74.07
2019-01-25T10:54:38.375Z,73.93
2019-01-25T10:57:42.334Z,73.21
2019-01-25T11:00:46.212Z,73.50
2019-01-25T11:03:50.048Z,73.56
2019-01-25T11:06:53.849Z,74.01
2019-01-25T11:09:57.689Z,72.62
2019-01-25T11:13:02.064Z,73.21
2019-01-25T11:16:06.348Z,72.90
2019-01-25T11:19:10.277Z,73.93
2019-01-25T11:22:14.085Z,74.12
2019-01-25T11:25:28.874Z,73.47
2019-01-25T11:28:32.667Z,73.02
2019-01-25T11:31:36.471Z,72.89
2019-01-25T11:34:40.440Z,73.02
2019-01-25T11:37:44.379Z,71.79
2019-01-25T11:40:48.359Z,72.58
2019-01-25T11:43:52.189Z,73.31
2019-01-25T11:46:56.134Z,72.46
2019-01-25T11:50:00.010Z,73.53
2019-01-25T11:53:04.017Z,72.59
2019-01-25T11:56:07.989Z,72.98
2019-01-25T11:59:11.921Z,72.81
2019-01-25T12:02:20.880Z,72.71
2019-01-25T12:05:22.673Z,72.62
2019-01-25T12:08:26.579Z,72.55
2019-01-25T12:11:30.470Z,72.57
2019-01-25T12:14:34.276Z,72.29
2019-01-25T12:17:38.099Z,71.68
2019-01-25T12:20:41.918Z,71.84
2019-01-25T12:23:45.790Z,71.34
2019-01-25T12:26:49.594Z,71.42
2019-01-25T12:29:53.417Z,71.61
2019-01-25T12:32:57.380Z,71.54
2019-01-25T12:36:01.196Z,71.79
2019-01-25T12:39:08.343Z,71.92
2019-01-25T12:42:12.225Z,71.26
2019-01-25T12:45:18.832Z,71.62
2019-01-25T12:48:22.658Z,71.95
2019-01-25T12:51:36.004Z,71.84
2019-01-25T12:54:39.837Z,72.23
2019-01-25T12:57:43.636Z,72.39
2019-01-25T13:00:47.567Z,72.47
2019-01-25T13:03:51.463Z,72.54
2019-01-25T13:06:55.391Z,72.04
2019-01-25T13:09:59.196Z,71.72
2019-01-25T13:13:03.179Z,72.08
2019-01-25T13:16:07.118Z,72.13
2019-01-25T13:19:11.101Z,72.06
2019-01-25T13:22:14.913Z,71.37
2019-01-25T13:25:18.819Z,70.93
2019-01-25T13:28:22.813Z,71.39
2019-01-25T13:31:26.616Z,71.53
2019-01-25T13:34:30.471Z,71.86
2019-01-25T13:37:34.335Z,72.21
2019-01-25T13:40:38.214Z,72.51
2019-01-25T13:43:42.102Z,72.51
2019-01-25T13:46:45.897Z,71.24
2019-01-25T13:49:49.731Z,71.33
2019-01-25T13:52:53.669Z,71.64
2019-01-25T13:55:57.574Z,71.40
2019-01-25T13:59:01.386Z,71.48
2019-01-25T14:02:05.359Z,71.73
2019-01-25T14:05:09.475Z,71.83
2019-01-25T14:08:13.286Z,71.26
2019-01-25T14:11:17.188Z,71.60
2019-01-25T14:14:21.032Z,71.64
2019-01-25T14:17:24.845Z,71.92
2019-01-25T14:20:30.514Z,71.18
2019-01-25T14:23:34.327Z,71.43
2019-01-25T14:26:38.291Z,71.12
2019-01-25T14:29:42.126Z,70.61
2019-01-25T14:32:45.933Z,70.53
2019-01-25T14:35:49.770Z,70.86
2019-01-25T14:38:53.593Z,71.17
2019-01-25T14:41:57.399Z,71.28
2019-01-25T14:45:01.218Z,70.71
2019-01-25T14:48:05.693Z,70.35
2019-01-25T14:51:09.568Z,70.29
2019-01-25T14:54:13.377Z,69.98
2019-01-25T14:57:17.204Z,70.15
2019-01-25T15:00:21.078Z,70.03
2019-01-25T15:03:24.908Z,70.14
2019-01-25T15:06:28.788Z,70.48
2019-01-25T15:09:32.612Z,70.63
2019-01-25T15:12:36.586Z,70.25
2019-01-25T15:15:40.466Z,70.96
2019-01-25T15:18:44.279Z,70.94
2019-01-25T15:21:48.086Z,71.10
2019-01-25T15:24:52.050Z,71.02
2019-01-25T15:27:55.988Z,70.93
2019-01-25T15:30:59.871Z,70.95
2019-01-25T15:34:03.796Z,71.31
2019-01-25T15:37:07.704Z,71.48
2019-01-25T15:40:12.399Z,71.49
2019-01-25T15:43:16.203Z,71.79
2019-01-25T15:46:20.270Z,72.06
2019-01-25T15:49:24.091Z,72.15
2019-01-25T15:52:28.025Z,72.39
2019-01-25T15:55:32.191Z,72.66
2019-01-25T15:58:36.098Z,72.64
2019-01-25T16:01:39.926Z,72.65
2019-01-25T16:04:43.731Z,72.55
2019-01-25T16:07:47.881Z,72.62
2019-01-25T16:10:51.798Z,73.00
2019-01-25T16:13:55.613Z,73.02
2019-01-25T16:16:59.517Z,73.19
2019-01-25T16:20:03.504Z,73.46
2019-01-25T16:23:07.465Z,74.07
2019-01-25T16:26:11.273Z,74.16
2019-01-25T16:29:15.102Z,74.13
2019-01-25T16:32:19.021Z,74.15
2019-01-25T16:35:22.916Z,73.87
2019-01-25T16:38:27.656Z,73.93
2019-01-25T16:41:31.498Z,74.20
2019-01-25T16:44:36.391Z,74.64
2019-01-25T16:47:40.205Z,74.42
2019-01-25T16:50:44.096Z,74.34
2019-01-25T16:53:47.977Z,74.37
2019-01-25T16:56:51.789Z,74.91
2019-01-25T16:59:55.668Z,75.03
2019-01-25T17:02:59.490Z,75.31
2019-01-25T17:06:03.436Z,75.51
2019-01-25T17:09:08.358Z,76.01
2019-01-25T17:12:12.181Z,76.50
2019-01-25T17:15:16.378Z,76.54
2019-01-25T17:18:20.332Z,76.58
2019-01-25T17:21:24.234Z,77.25
2019-01-25T17:24:28.087Z,77.69
2019-01-25T17:27:31.910Z,78.05
2019-01-25T17:30:36.488Z,78.34
2019-01-25T17:33:40.405Z,78.24
2019-01-25T17:36:44.301Z,78.20
2019-01-25T17:39:48.188Z,78.26
2019-01-25T17:42:52.172Z,78.54
2019-01-25T17:45:56.047Z,78.85
2019-01-25T17:48:59.941Z,79.71
2019-01-25T17:52:03.850Z,79.79
2019-01-25T17:55:08.769Z,79.91
2019-01-25T17:58:12.678Z,80.31
2019-01-25T18:01:16.501Z,80.70
2019-01-25T18:04:20.319Z,80.94
2019-01-25T18:07:24.208Z,81.02
2019-01-25T18:10:28.172Z,81.46
2019-01-25T18:13:32.048Z,81.93
2019-01-25T18:16:36.011Z,82.33
2019-01-25T18:19:39.828Z,82.77
2019-01-25T18:22:43.781Z,83.08
2019-01-25T18:26:00.822Z,82.89
2019-01-25T18:29:14.237Z,82.95
2019-01-25T18:32:18.136Z,83.16
2019-01-25T18:35:21.964Z,83.32
2019-01-25T18:38:25.793Z,83.42
2019-01-25T18:41:29.627Z,83.66
2019-01-25T18:44:33.460Z,83.91
2019-01-25T18:47:37.699Z,84.11
2019-01-25T18:50:41.596Z,84.10
2019-01-25T18:53:45.982Z,84.10
2019-01-25T18:56:51.181Z,84.09
2019-01-25T18:59:54.966Z,84.23
2019-01-25T19:02:58.832Z,83.97
2019-01-25T19:06:02.836Z,83.77
2019-01-25T19:09:09.025Z,83.89
2019-01-25T19:12:12.858Z,84.15
2019-01-25T19:15:19.444Z,84.09
2019-01-25T19:18:23.329Z,84.28
2019-01-25T19:21:27.162Z,84.35
2019-01-25T19:24:30.964Z,84.48
2019-01-25T19:27:34.845Z,84.56
2019-01-25T19:30:41.215Z,84.55
2019-01-25T19:33:45.034Z,84.68
2019-01-25T19:36:48.904Z,84.81
2019-01-25T19:39:52.798Z,85.09
2019-01-25T19:42:56.765Z,85.10
2019-01-25T19:46:00.567Z,85.29
2019-01-25T19:49:04.540Z,85.33
2019-01-25T19:52:08.565Z,85.31
2019-01-25T19:55:15.373Z,85.30
2019-01-25T19:58:20.751Z,85.27
2019-01-25T20:01:24.746Z,85.29
2019-01-25T20:04:28.657Z,85.31
2019-01-25T20:07:32.475Z,85.21
2019-01-25T20:10:36.432Z,85.01
2019-01-25T20:13:40.344Z,85.15
2019-01-25T20:16:44.236Z,85.09
2019-01-25T20:19:48.036Z,85.29
2019-01-25T20:22:51.885Z,85.31
2019-01-25T20:25:55.697Z,85.59
2019-01-25T20:28:59.522Z,85.80
2019-01-25T20:32:03.560Z,86.01
2019-01-25T20:35:09.610Z,86.13
2019-01-25T20:38:13.553Z,86.14
2019-01-25T20:41:17.474Z,86.17
2019-01-25T20:44:21.353Z,86.20
2019-01-25T20:47:25.319Z,86.27
2019-01-25T20:50:30.369Z,86.39
2019-01-25T20:53:34.253Z,86.36
2019-01-25T20:56:38.064Z,86.37
2019-01-25T20:59:41.888Z,86.49
2019-01-25T21:02:45.783Z,86.75
2019-01-25T21:05:49.666Z,86.82
2019-01-25T21:08:53.598Z,86.98
2019-01-25T21:11:57.475Z,87.09
2019-01-25T21:15:01.285Z,87.26
2019-01-25T21:18:06.322Z,87.63
2019-01-25T21:21:10.208Z,88.00
2019-01-25T21:24:14.124Z,88.00
2019-01-25T21:27:17.949Z,88.08
2019-01-25T21:30:24.394Z,88.12
2019-01-25T21:33:28.376Z,88.18
2019-01-25T21:36:32.325Z,88.31
2019-01-25T21:39:36.149Z,88.40
2019-01-25T21:42:39.946Z,88.55
2019-01-25T21:45:43.879Z,88.57
2019-01-25T21:48:47.706Z,88.70
2019-01-25T21:51:51.600Z,88.88
2019-01-25T21:54:55.439Z,88.91
2019-01-25T21:58:05.508Z,88.93
2019-01-25T22:01:05.056Z,88.90
2019-01-25T22:04:08.877Z,89.11
2019-01-25T22:07:12.711Z,89.10
2019-01-25T22:10:22.298Z,89.17
2019-01-25T22:13:26.096Z,89.26
2019-01-25T22:16:30.081Z,89.41
2019-01-25T22:19:33.993Z,89.34
2019-01-25T22:22:37.899Z,89.44
2019-01-25T22:25:41.940Z,89.53
2019-01-25T22:28:45.765Z,89.54
2019-01-25T22:31:49.721Z,89.57
2019-01-25T22:34:53.516Z,89.69
2019-01-25T22:37:57.487Z,89.77
2019-01-25T22:41:01.374Z,89.78
2019-01-25T22:44:05.262Z,89.79
2019-01-25T22:47:09.154Z,90.00
2019-01-25T22:50:16.415Z,90.24
2019-01-25T22:53:20.385Z,90.36
2019-01-25T22:56:24.240Z,90.39
2019-01-25T22:59:28.101Z,90.42
2019-01-25T23:02:31.991Z,90.56
2019-01-25T23:06:11.694Z,90.62
2019-01-25T23:09:30.588Z,90.57
2019-01-25T23:12:35.862Z,90.77
2019-01-25T23:15:39.875Z,90.94
2019-01-25T23:18:43.685Z,91.03
2019-01-25T23:21:47.594Z,91.08
2019-01-25T23:24:51.410Z,91.04
2019-01-25T23:27:55.233Z,91.02
2019-01-25T23:30:59.199Z,91.13
2019-01-25T23:34:03.103Z,91.25
2019-01-25T23:37:06.955Z,91.25
2019-01-25T23:40:13.238Z,91.34
2019-01-25T23:43:17.158Z,91.43
2019-01-25T23:46:20.958Z,91.51
2019-01-25T23:49:24.793Z,91.55
2019-01-25T23:52:28.619Z,91.66
2019-01-25T23:55:32.588Z,91.71
2019-01-25T23:58:36.481Z,91.64
